createdAt,value
2023-08-15T00:00:13.346Z,1.44
2023-08-15T00:01:13.796Z,3.32
2023-08-15T00:02:13.875Z,3.84
2023-08-15T00:03:14.012Z,4.68
2023-08-15T00:04:12.950Z,0.00
2023-08-15T00:05:12.862Z,1.92
2023-08-15T00:06:13.785Z,1.64
2023-08-15T00:07:14.003Z,1.64
2023-08-15T00:08:13.190Z,1.44
2023-08-15T00:09:13.020Z,5.92
2023-08-15T00:10:13.147Z,1.12
2023-08-15T00:11:13.016Z,1.48
2023-08-15T00:12:13.230Z,3.88
2023-08-15T00:13:13.251Z,0.12
2023-08-15T00:14:13.136Z,0.00
2023-08-15T00:15:13.262Z,1.96
2023-08-15T00:16:13.270Z,11.92
2023-08-15T00:17:13.226Z,2.92
2023-08-15T00:18:13.217Z,2.32
2023-08-15T00:19:13.346Z,0.44
2023-08-15T00:20:13.173Z,4.76
2023-08-15T00:21:13.179Z,2.84
2023-08-15T00:22:12.961Z,0.44
2023-08-15T00:23:12.888Z,6.16
2023-08-15T00:24:12.935Z,2.08
2023-08-15T00:25:12.891Z,0.20
2023-08-15T00:26:12.930Z,2.16
2023-08-15T00:27:12.710Z,0.84
2023-08-15T00:28:13.811Z,2.04
2023-08-15T00:29:13.772Z,9.80
2023-08-15T00:30:13.798Z,2.04
2023-08-15T00:31:13.716Z,0.00
2023-08-15T00:32:13.747Z,0.36
2023-08-15T00:33:13.767Z,0.00
2023-08-15T00:34:13.812Z,0.00
2023-08-15T00:35:13.856Z,0.68
2023-08-15T00:36:13.703Z,0.00
2023-08-15T00:37:13.530Z,0.00
2023-08-15T00:38:13.381Z,0.00
2023-08-15T00:39:13.340Z,0.00
2023-08-15T00:40:13.309Z,0.12
2023-08-15T00:41:13.358Z,0.00
2023-08-15T00:42:13.384Z,0.12
2023-08-15T00:43:13.385Z,0.32
2023-08-15T00:44:13.422Z,0.00
2023-08-15T00:45:13.527Z,0.00
2023-08-15T00:46:13.699Z,0.00
2023-08-15T00:47:13.634Z,0.00
2023-08-15T00:48:13.394Z,0.96
2023-08-15T00:49:13.371Z,0.00
2023-08-15T00:50:14.079Z,0.00
2023-08-15T00:51:13.223Z,1.12
2023-08-15T00:52:13.181Z,0.00
2023-08-15T00:53:13.134Z,0.00
2023-08-15T00:54:12.951Z,0.12
2023-08-15T00:55:13.003Z,0.00
2023-08-15T00:56:12.946Z,0.00
2023-08-15T00:57:12.722Z,0.00
2023-08-15T00:58:13.505Z,0.00
2023-08-15T00:59:13.304Z,0.00
2023-08-15T01:00:13.363Z,0.00
2023-08-15T01:01:13.279Z,2.24
2023-08-15T01:02:13.271Z,2.32
2023-08-15T01:03:13.463Z,0.80
2023-08-15T01:04:13.566Z,0.24
2023-08-15T01:05:13.639Z,0.12
2023-08-15T01:06:13.500Z,0.00
2023-08-15T01:07:13.706Z,0.00
2023-08-15T01:08:13.834Z,0.00
2023-08-15T01:09:13.815Z,0.00
2023-08-15T01:10:13.786Z,0.00
2023-08-15T01:11:13.724Z,0.48
2023-08-15T01:12:13.730Z,0.40
2023-08-15T01:13:13.666Z,1.00
2023-08-15T01:14:13.700Z,0.00
2023-08-15T01:15:13.842Z,6.84
2023-08-15T01:16:13.904Z,0.36
2023-08-15T01:17:13.021Z,2.32
2023-08-15T01:18:13.242Z,0.96
2023-08-15T01:19:13.212Z,0.48
2023-08-15T01:20:12.906Z,3.12
2023-08-15T01:21:12.823Z,2.72
2023-08-15T01:22:13.781Z,2.40
2023-08-15T01:23:13.663Z,0.00
2023-08-15T01:24:14.124Z,0.36
2023-08-15T01:25:13.211Z,0.32
2023-08-15T01:26:12.941Z,0.00
2023-08-15T01:27:13.092Z,0.00
2023-08-15T01:28:13.231Z,0.00
2023-08-15T01:29:13.108Z,0.00
2023-08-15T01:30:12.961Z,0.00
2023-08-15T01:31:14.632Z,0.16
2023-08-15T01:32:13.633Z,0.00
2023-08-15T01:33:13.708Z,0.00
2023-08-15T01:34:13.684Z,0.00
2023-08-15T01:35:13.681Z,1.00
2023-08-15T01:36:13.961Z,0.52
2023-08-15T01:37:12.685Z,0.00
2023-08-15T01:38:13.751Z,0.00
2023-08-15T01:39:14.088Z,0.00
2023-08-15T01:40:13.006Z,0.00
2023-08-15T01:41:13.044Z,0.00
2023-08-15T01:42:12.912Z,0.00
2023-08-15T01:43:12.831Z,0.00
2023-08-15T01:44:13.739Z,0.00
2023-08-15T01:45:13.649Z,0.00
2023-08-15T01:46:13.560Z,0.00
2023-08-15T01:47:13.477Z,0.00
2023-08-15T01:48:13.334Z,0.00
2023-08-15T01:49:13.336Z,0.00
2023-08-15T01:50:18.401Z,0.16
2023-08-15T01:51:13.714Z,0.00
2023-08-15T01:52:13.590Z,0.00
2023-08-15T01:53:13.358Z,0.00
2023-08-15T01:54:13.321Z,0.00
2023-08-15T01:55:13.338Z,0.00
2023-08-15T01:56:13.414Z,0.00
2023-08-15T01:57:13.144Z,0.00
2023-08-15T01:58:12.937Z,0.00
2023-08-15T01:59:13.161Z,0.16
2023-08-15T02:00:13.352Z,1.88
2023-08-15T02:01:13.636Z,1.20
2023-08-15T02:02:13.672Z,1.04
2023-08-15T02:03:13.657Z,0.34
2023-08-15T02:04:13.774Z,0.00
2023-08-15T02:05:13.835Z,0.00
2023-08-15T02:06:12.931Z,0.56
2023-08-15T02:07:13.009Z,1.12
2023-08-15T02:08:13.016Z,0.72
2023-08-15T02:09:12.798Z,0.80
2023-08-15T02:10:13.938Z,1.00
2023-08-15T02:11:13.052Z,2.04
2023-08-15T02:12:13.129Z,0.44
2023-08-15T02:13:13.054Z,0.44
2023-08-15T02:14:13.062Z,0.00
2023-08-15T02:15:12.950Z,0.00
2023-08-15T02:16:13.034Z,0.00
2023-08-15T02:17:13.065Z,0.00
2023-08-15T02:18:12.886Z,0.00
2023-08-15T02:19:13.423Z,0.00
2023-08-15T02:20:13.641Z,0.00
2023-08-15T02:21:13.574Z,0.00
2023-08-15T02:22:13.678Z,0.00
2023-08-15T02:23:13.808Z,0.00
2023-08-15T02:24:13.771Z,0.00
2023-08-15T02:25:13.600Z,0.00
2023-08-15T02:26:13.614Z,0.00
2023-08-15T02:27:13.875Z,0.00
2023-08-15T02:28:13.788Z,0.00
2023-08-15T02:29:13.669Z,0.00
2023-08-15T02:30:13.604Z,0.00
2023-08-15T02:31:13.687Z,0.00
2023-08-15T02:32:13.639Z,0.00
2023-08-15T02:33:13.645Z,0.00
2023-08-15T02:34:13.790Z,0.00
2023-08-15T02:35:13.836Z,0.00
2023-08-15T02:36:13.838Z,0.00
2023-08-15T02:37:13.732Z,0.00
2023-08-15T02:38:13.814Z,0.00
2023-08-15T02:39:13.632Z,0.00
2023-08-15T02:40:13.539Z,0.00
2023-08-15T02:41:13.444Z,0.00
2023-08-15T02:42:13.591Z,0.00
2023-08-15T02:43:13.777Z,0.00
2023-08-15T02:44:13.848Z,0.00
2023-08-15T02:45:13.696Z,0.00
2023-08-15T02:46:13.593Z,0.00
2023-08-15T02:47:13.615Z,0.00
2023-08-15T02:48:13.631Z,0.00
2023-08-15T02:49:13.513Z,0.00
2023-08-15T02:50:14.012Z,0.00
2023-08-15T02:51:12.810Z,0.16
2023-08-15T02:52:13.852Z,0.00
2023-08-15T02:53:13.744Z,0.00
2023-08-15T02:54:13.652Z,0.12
2023-08-15T02:55:13.477Z,0.00
2023-08-15T02:56:13.221Z,0.00
2023-08-15T02:57:13.107Z,0.00
2023-08-15T02:58:13.165Z,0.32
2023-08-15T02:59:13.029Z,0.08
2023-08-15T03:00:12.793Z,0.00
2023-08-15T03:01:13.605Z,0.44
2023-08-15T03:02:13.802Z,1.24
2023-08-15T03:03:12.859Z,0.64
2023-08-15T03:04:13.205Z,1.60
2023-08-15T03:05:13.247Z,0.76
2023-08-15T03:06:13.160Z,1.64
2023-08-15T03:07:13.234Z,3.28
2023-08-15T03:08:13.330Z,1.68
2023-08-15T03:09:13.444Z,2.28
2023-08-15T03:10:13.468Z,4.96
2023-08-15T03:11:13.511Z,2.24
2023-08-15T03:12:13.533Z,7.32
2023-08-15T03:13:13.510Z,3.80
2023-08-15T03:14:13.415Z,3.80
2023-08-15T03:15:13.443Z,0.92
2023-08-15T03:16:13.527Z,3.96
2023-08-15T03:17:13.261Z,3.84
2023-08-15T03:18:13.657Z,4.40
2023-08-15T03:19:13.728Z,5.36
2023-08-15T03:20:13.834Z,5.64
2023-08-15T03:21:13.843Z,5.24
2023-08-15T03:22:13.786Z,7.28
2023-08-15T03:23:13.849Z,4.52
2023-08-15T03:24:13.849Z,2.88
2023-08-15T03:25:13.898Z,1.20
2023-08-15T03:26:17.768Z,5.32
2023-08-15T03:27:13.576Z,2.12
2023-08-15T03:28:13.360Z,2.88
2023-08-15T03:29:13.659Z,6.20
2023-08-15T03:30:13.773Z,6.40
2023-08-15T03:31:14.083Z,4.40
2023-08-15T03:32:13.098Z,1.96
2023-08-15T03:33:13.413Z,1.68
2023-08-15T03:34:13.248Z,5.68
2023-08-15T03:35:13.149Z,2.52
2023-08-15T03:36:13.072Z,6.56
2023-08-15T03:37:12.989Z,4.40
2023-08-15T03:38:12.906Z,6.32
2023-08-15T03:39:13.173Z,4.88
2023-08-15T03:40:13.574Z,5.24
2023-08-15T03:41:13.641Z,6.60
2023-08-15T03:42:13.909Z,12.96
2023-08-15T03:43:12.790Z,8.92
2023-08-15T03:44:13.840Z,10.16
2023-08-15T03:45:14.105Z,12.32
2023-08-15T03:46:13.278Z,6.68
2023-08-15T03:47:13.458Z,10.12
2023-08-15T03:48:13.359Z,8.64
2023-08-15T03:49:13.316Z,9.92
2023-08-15T03:50:13.052Z,6.40
2023-08-15T03:51:19.027Z,2.56
2023-08-15T03:52:13.582Z,0.60
2023-08-15T03:53:13.450Z,2.08
2023-08-15T03:54:13.406Z,2.08
2023-08-15T03:55:13.323Z,0.88
2023-08-15T03:56:13.634Z,0.44
2023-08-15T03:57:13.430Z,0.72
2023-08-15T03:58:13.198Z,2.40
2023-08-15T03:59:12.996Z,8.32
2023-08-15T04:00:12.816Z,2.72
2023-08-15T04:01:13.547Z,1.92
2023-08-15T04:02:13.702Z,7.16
2023-08-15T04:03:13.569Z,6.60
2023-08-15T04:04:13.450Z,3.68
2023-08-15T04:05:13.263Z,0.96
2023-08-15T04:06:13.285Z,4.12
2023-08-15T04:07:13.198Z,6.80
2023-08-15T04:08:13.073Z,2.96
2023-08-15T04:09:12.959Z,1.20
2023-08-15T04:10:12.887Z,1.80
2023-08-15T04:11:12.867Z,0.92
2023-08-15T04:12:13.808Z,1.12
2023-08-15T04:13:13.707Z,2.76
2023-08-15T04:14:13.647Z,0.56
2023-08-15T04:15:13.481Z,1.84
2023-08-15T04:16:13.723Z,1.76
2023-08-15T04:17:14.146Z,0.16
2023-08-15T04:18:13.047Z,0.00
2023-08-15T04:19:12.891Z,0.64
2023-08-15T04:20:12.652Z,1.44
2023-08-15T04:21:13.415Z,0.60
2023-08-15T04:22:13.243Z,1.24
2023-08-15T04:23:13.059Z,0.28
2023-08-15T04:24:13.272Z,2.00
2023-08-15T04:25:13.175Z,1.04
2023-08-15T04:26:13.208Z,1.84
2023-08-15T04:27:13.251Z,1.44
2023-08-15T04:28:13.449Z,1.88
2023-08-15T04:29:13.397Z,2.88
2023-08-15T04:30:13.273Z,3.52
2023-08-15T04:31:13.307Z,2.56
2023-08-15T04:32:13.578Z,1.84
2023-08-15T04:33:13.680Z,1.80
2023-08-15T04:34:13.521Z,3.40
2023-08-15T04:35:13.388Z,5.28
2023-08-15T04:36:13.213Z,3.20
2023-08-15T04:37:12.991Z,5.12
2023-08-15T04:38:13.168Z,4.72
2023-08-15T04:39:13.330Z,7.80
2023-08-15T04:40:13.555Z,8.08
2023-08-15T04:41:13.582Z,4.00
2023-08-15T04:42:14.201Z,4.12
2023-08-15T04:43:13.134Z,3.60
2023-08-15T04:44:13.202Z,6.36
2023-08-15T04:45:13.135Z,6.64
2023-08-15T04:46:13.081Z,9.20
2023-08-15T04:47:13.259Z,5.60
2023-08-15T04:48:13.251Z,4.28
2023-08-15T04:49:13.350Z,8.40
2023-08-15T04:50:13.236Z,9.52
2023-08-15T04:51:13.121Z,3.44
2023-08-15T04:52:13.488Z,7.08
2023-08-15T04:53:13.779Z,9.60
2023-08-15T04:54:13.879Z,5.64
2023-08-15T04:55:12.809Z,1.60
2023-08-15T04:56:13.657Z,3.28
2023-08-15T04:57:13.521Z,4.32
2023-08-15T04:58:13.406Z,3.28
2023-08-15T04:59:13.298Z,4.68
2023-08-15T05:00:13.279Z,5.20
2023-08-15T05:01:13.238Z,1.72
2023-08-15T05:02:13.260Z,1.36
2023-08-15T05:03:13.463Z,1.64
2023-08-15T05:04:13.359Z,3.72
2023-08-15T05:05:13.360Z,2.40
2023-08-15T05:06:13.303Z,0.92
2023-08-15T05:07:13.153Z,9.24
2023-08-15T05:08:13.081Z,3.20
2023-08-15T05:09:13.228Z,3.08
2023-08-15T05:10:13.142Z,5.36
2023-08-15T05:11:12.941Z,0.72
2023-08-15T05:12:12.740Z,0.36
2023-08-15T05:13:13.589Z,2.88
2023-08-15T05:14:13.548Z,1.40
2023-08-15T05:15:13.567Z,1.12
2023-08-15T05:16:13.443Z,1.52
2023-08-15T05:17:13.381Z,0.16
2023-08-15T05:18:13.242Z,3.56
2023-08-15T05:19:13.204Z,2.84
2023-08-15T05:20:13.065Z,1.20
2023-08-15T05:21:13.472Z,6.76
2023-08-15T05:22:13.480Z,2.44
2023-08-15T05:23:13.320Z,2.36
2023-08-15T05:24:13.170Z,0.76
2023-08-15T05:25:13.057Z,1.12
2023-08-15T05:26:12.877Z,0.72
2023-08-15T05:27:13.028Z,4.08
2023-08-15T05:28:12.854Z,1.96
2023-08-15T05:29:13.870Z,1.24
2023-08-15T05:30:12.816Z,2.16
2023-08-15T05:31:14.055Z,1.16
2023-08-15T05:32:13.243Z,0.00
2023-08-15T05:33:13.118Z,0.04
2023-08-15T05:34:13.017Z,3.08
2023-08-15T05:35:12.898Z,0.32
2023-08-15T05:36:12.936Z,0.24
2023-08-15T05:37:12.916Z,0.04
2023-08-15T05:38:12.834Z,0.16
2023-08-15T05:39:13.889Z,1.08
2023-08-15T05:40:12.775Z,0.80
2023-08-15T05:41:13.905Z,0.96
2023-08-15T05:42:12.849Z,0.00
2023-08-15T05:43:13.618Z,0.64
2023-08-15T05:44:13.514Z,5.24
2023-08-15T05:45:13.368Z,2.60
2023-08-15T05:46:13.215Z,3.04
2023-08-15T05:47:12.972Z,1.52
2023-08-15T05:48:12.951Z,0.28
2023-08-15T05:49:12.713Z,0.40
2023-08-15T05:50:13.590Z,1.88
2023-08-15T05:51:13.670Z,2.04
2023-08-15T05:52:13.754Z,2.52
2023-08-15T05:53:13.584Z,3.16
2023-08-15T05:54:13.479Z,3.68
2023-08-15T05:55:13.274Z,3.96
2023-08-15T05:56:13.228Z,6.56
2023-08-15T05:57:13.030Z,3.12
2023-08-15T05:58:12.798Z,2.96
2023-08-15T05:59:13.660Z,3.68
2023-08-15T06:00:13.700Z,1.52
2023-08-15T06:01:13.967Z,0.04
2023-08-15T06:02:12.916Z,0.28
2023-08-15T06:03:13.514Z,0.04
2023-08-15T06:04:13.508Z,1.60
2023-08-15T06:05:13.484Z,0.88
2023-08-15T06:06:13.283Z,2.96
2023-08-15T06:07:13.305Z,1.20
2023-08-15T06:08:13.123Z,2.44
2023-08-15T06:09:13.353Z,0.16
2023-08-15T06:10:13.195Z,1.48
2023-08-15T06:11:13.065Z,3.12
2023-08-15T06:12:12.986Z,6.12
2023-08-15T06:13:12.840Z,4.00
2023-08-15T06:14:13.811Z,3.40
2023-08-15T06:15:13.717Z,5.31
2023-08-15T06:16:14.184Z,7.20
2023-08-15T06:17:13.238Z,5.24
2023-08-15T06:18:13.038Z,5.12
2023-08-15T06:19:13.110Z,7.64
2023-08-15T06:20:13.168Z,5.24
2023-08-15T06:21:13.394Z,4.60
2023-08-15T06:22:13.541Z,4.60
2023-08-15T06:23:13.493Z,9.24
2023-08-15T06:24:13.370Z,7.24
2023-08-15T06:25:13.166Z,6.48
2023-08-15T06:26:13.078Z,6.52
2023-08-15T06:27:13.025Z,12.04
2023-08-15T06:28:12.805Z,8.84
2023-08-15T06:29:13.532Z,8.20
2023-08-15T06:30:13.416Z,12.40
2023-08-15T06:31:13.293Z,10.40
2023-08-15T06:32:13.329Z,2.80
2023-08-15T06:33:13.180Z,6.52
2023-08-15T06:34:13.202Z,7.12
2023-08-15T06:35:12.981Z,10.76
2023-08-15T06:36:13.511Z,6.48
2023-08-15T06:37:13.474Z,5.20
2023-08-15T06:38:13.332Z,7.92
2023-08-15T06:39:13.146Z,3.56
2023-08-15T06:40:12.952Z,6.12
2023-08-15T06:41:12.759Z,1.52
2023-08-15T06:42:13.570Z,3.28
2023-08-15T06:43:13.585Z,4.32
2023-08-15T06:44:13.505Z,2.20
2023-08-15T06:45:13.730Z,0.60
2023-08-15T06:46:13.633Z,4.56
2023-08-15T06:47:13.457Z,10.84
2023-08-15T06:48:13.248Z,8.76
2023-08-15T06:49:12.963Z,6.16
2023-08-15T06:50:12.972Z,1.68
2023-08-15T06:51:13.148Z,6.12
2023-08-15T06:52:12.933Z,3.36
2023-08-15T06:53:12.797Z,8.92
2023-08-15T06:54:13.785Z,4.64
2023-08-15T06:55:13.757Z,3.80
2023-08-15T06:56:13.758Z,3.32
2023-08-15T06:57:13.679Z,3.80
2023-08-15T06:58:13.675Z,1.92
2023-08-15T06:59:13.546Z,9.52
2023-08-15T07:00:13.751Z,10.48
2023-08-15T07:01:13.850Z,6.76
2023-08-15T07:02:13.831Z,3.88
2023-08-15T07:03:14.052Z,13.24
2023-08-15T07:04:13.638Z,10.08
2023-08-15T07:05:13.536Z,2.64
2023-08-15T07:06:13.725Z,3.16
2023-08-15T07:07:13.564Z,3.92
2023-08-15T07:08:13.472Z,0.56
2023-08-15T07:09:13.866Z,4.72
2023-08-15T07:10:13.056Z,13.72
2023-08-15T07:11:13.040Z,15.08
2023-08-15T07:12:12.892Z,13.48
2023-08-15T07:13:13.770Z,8.16
2023-08-15T07:14:13.692Z,4.44
2023-08-15T07:15:15.275Z,7.00
2023-08-15T07:16:13.194Z,5.96
2023-08-15T07:17:13.001Z,4.04
2023-08-15T07:18:12.944Z,17.20
2023-08-15T07:19:13.157Z,16.64
2023-08-15T07:20:13.192Z,20.88
2023-08-15T07:21:21.282Z,20.00
2023-08-15T07:22:13.223Z,17.80
2023-08-15T07:23:13.054Z,15.12
2023-08-15T07:24:12.893Z,12.56
2023-08-15T07:25:12.756Z,18.96
2023-08-15T07:26:13.665Z,11.40
2023-08-15T07:27:13.615Z,8.92
2023-08-15T07:28:13.839Z,11.16
2023-08-15T07:29:13.859Z,25.72
2023-08-15T07:30:13.877Z,10.84
2023-08-15T07:31:12.791Z,10.00
2023-08-15T07:32:13.965Z,21.84
2023-08-15T07:33:13.127Z,22.08
2023-08-15T07:34:13.053Z,12.56
2023-08-15T07:35:12.808Z,16.60
2023-08-15T07:36:13.735Z,14.52
2023-08-15T07:37:13.877Z,9.08
2023-08-15T07:38:12.980Z,21.16
2023-08-15T07:39:13.027Z,26.56
2023-08-15T07:40:12.771Z,13.44
2023-08-15T07:41:13.610Z,10.16
2023-08-15T07:42:13.611Z,3.92
2023-08-15T07:43:13.448Z,16.32
2023-08-15T07:44:13.190Z,12.12
2023-08-15T07:45:13.039Z,22.68
2023-08-15T07:46:13.059Z,12.32
2023-08-15T07:47:12.927Z,12.04
2023-08-15T07:48:13.085Z,15.92
2023-08-15T07:49:12.955Z,18.28
2023-08-15T07:50:12.973Z,23.72
2023-08-15T07:51:12.912Z,10.76
2023-08-15T07:52:18.144Z,38.68
2023-08-15T07:53:12.891Z,34.92
2023-08-15T07:54:12.665Z,21.60
2023-08-15T07:55:13.526Z,14.12
2023-08-15T07:56:13.325Z,24.00
2023-08-15T07:57:13.318Z,27.20
2023-08-15T07:58:13.102Z,30.72
2023-08-15T07:59:12.995Z,26.04
2023-08-15T08:00:12.834Z,26.36
2023-08-15T08:01:13.755Z,19.24
2023-08-15T08:02:14.225Z,24.84
2023-08-15T08:03:13.128Z,37.88
2023-08-15T08:04:12.936Z,37.28
2023-08-15T08:05:12.880Z,25.44
2023-08-15T08:06:31.858Z,23.68
2023-08-15T08:07:13.512Z,16.76
2023-08-15T08:08:13.427Z,13.44
2023-08-15T08:09:13.399Z,28.48
2023-08-15T08:10:13.206Z,11.44
2023-08-15T08:11:13.278Z,19.16
2023-08-15T08:12:13.151Z,12.08
2023-08-15T08:13:13.004Z,18.96
2023-08-15T08:14:12.806Z,24.08
2023-08-15T08:15:13.526Z,21.12
2023-08-15T08:16:13.336Z,16.96
2023-08-15T08:17:13.199Z,23.96
2023-08-15T08:18:13.351Z,21.52
2023-08-15T08:19:13.246Z,22.60
2023-08-15T08:20:13.142Z,11.68
2023-08-15T08:21:13.007Z,21.76
2023-08-15T08:22:13.131Z,31.16
2023-08-15T08:23:13.057Z,21.56
2023-08-15T08:24:12.932Z,22.12
2023-08-15T08:25:12.971Z,22.80
2023-08-15T08:26:12.830Z,23.28
2023-08-15T08:27:14.061Z,13.20
2023-08-15T08:28:13.049Z,16.12
2023-08-15T08:29:12.949Z,18.28
2023-08-15T08:30:49.190Z,6.32
2023-08-15T08:31:01.120Z,16.08
2023-08-15T08:31:13.121Z,28.16
2023-08-15T08:32:13.125Z,23.88
2023-08-15T08:33:13.131Z,21.20
2023-08-15T08:34:13.112Z,30.68
2023-08-15T08:35:13.124Z,16.76
2023-08-15T08:36:12.988Z,33.36
2023-08-15T08:37:12.909Z,15.60
2023-08-15T08:38:12.894Z,22.04
2023-08-15T08:39:25.472Z,8.12
2023-08-15T08:40:12.921Z,16.40
2023-08-15T08:41:13.054Z,13.32
2023-08-15T08:42:13.327Z,17.92
2023-08-15T08:43:13.302Z,8.60
2023-08-15T08:44:13.151Z,10.28
2023-08-15T08:45:13.057Z,15.68
2023-08-15T08:46:13.153Z,10.76
2023-08-15T08:47:13.282Z,6.52
2023-08-15T08:48:13.235Z,7.44
2023-08-15T08:49:13.431Z,15.76
2023-08-15T08:50:13.440Z,8.96
2023-08-15T08:51:13.472Z,15.76
2023-08-15T08:52:13.525Z,15.48
2023-08-15T08:53:13.637Z,21.88
2023-08-15T08:54:14.361Z,15.84
2023-08-15T08:55:13.795Z,9.32
2023-08-15T08:56:13.605Z,11.20
2023-08-15T08:57:13.901Z,9.16
2023-08-15T08:58:12.874Z,7.84
2023-08-15T08:59:12.942Z,23.32
2023-08-15T09:00:12.887Z,17.00
2023-08-15T09:01:13.031Z,8.40
2023-08-15T09:02:12.995Z,15.08
2023-08-15T09:03:12.986Z,14.32
2023-08-15T09:04:12.969Z,8.64
2023-08-15T09:05:12.993Z,13.36
2023-08-15T09:06:12.870Z,3.76
2023-08-15T09:07:12.735Z,10.04
2023-08-15T09:08:13.782Z,15.52
2023-08-15T09:09:13.749Z,6.80
2023-08-15T09:10:13.872Z,3.00
2023-08-15T09:11:13.109Z,7.08
2023-08-15T09:12:13.195Z,4.72
2023-08-15T09:13:13.282Z,5.56
2023-08-15T09:14:13.367Z,8.76
2023-08-15T09:15:13.247Z,10.44
2023-08-15T09:16:13.376Z,14.36
2023-08-15T09:17:13.507Z,10.72
2023-08-15T09:18:13.415Z,16.24
2023-08-15T09:19:13.294Z,19.12
2023-08-15T09:20:13.147Z,9.24
2023-08-15T09:21:13.213Z,11.32
2023-08-15T09:22:13.307Z,10.40
2023-08-15T09:23:13.308Z,14.56
2023-08-15T09:24:13.041Z,9.80
2023-08-15T09:25:12.937Z,7.12
2023-08-15T09:26:12.876Z,7.68
2023-08-15T09:27:12.923Z,13.72
2023-08-15T09:28:12.947Z,13.44
2023-08-15T09:29:12.889Z,3.12
2023-08-15T09:30:12.980Z,1.92
2023-08-15T09:31:13.236Z,10.64
2023-08-15T09:32:13.166Z,10.28
2023-08-15T09:33:13.218Z,5.32
2023-08-15T09:34:13.080Z,9.56
2023-08-15T09:35:12.905Z,16.04
2023-08-15T09:36:12.765Z,14.88
2023-08-15T09:37:13.729Z,14.20
2023-08-15T09:38:13.584Z,11.12
2023-08-15T09:39:13.652Z,16.16
2023-08-15T09:40:13.657Z,16.92
2023-08-15T09:41:13.747Z,5.88
2023-08-15T09:42:13.823Z,5.00
2023-08-15T09:43:14.071Z,11.40
2023-08-15T09:44:13.347Z,18.52
2023-08-15T09:45:13.530Z,6.44
2023-08-15T09:46:13.598Z,4.56
2023-08-15T09:47:13.787Z,4.56
2023-08-15T09:48:14.135Z,10.16
2023-08-15T09:49:13.492Z,12.80
2023-08-15T09:50:13.371Z,12.52
2023-08-15T09:51:13.384Z,8.84
2023-08-15T09:52:13.215Z,14.84
2023-08-15T09:53:13.310Z,18.68
2023-08-15T09:54:13.197Z,13.08
2023-08-15T09:55:13.311Z,15.32
2023-08-15T09:56:13.109Z,26.36
2023-08-15T09:57:13.286Z,19.24
2023-08-15T09:58:13.852Z,16.92
2023-08-15T09:59:12.750Z,11.16
2023-08-15T10:00:13.774Z,12.12
2023-08-15T10:01:13.837Z,15.12
2023-08-15T10:02:12.850Z,9.80
2023-08-15T10:03:13.972Z,14.64
2023-08-15T10:04:13.037Z,17.12
2023-08-15T10:05:13.039Z,11.76
2023-08-15T10:06:14.276Z,15.92
2023-08-15T10:07:13.341Z,19.12
2023-08-15T10:08:13.031Z,13.72
2023-08-15T10:09:13.264Z,19.48
2023-08-15T10:10:13.260Z,16.08
2023-08-15T10:11:13.350Z,20.92
2023-08-15T10:12:13.339Z,15.24
2023-08-15T10:13:13.393Z,17.16
2023-08-15T10:14:13.357Z,12.52
2023-08-15T10:15:13.316Z,6.80
2023-08-15T10:16:13.382Z,17.16
2023-08-15T10:17:13.527Z,6.04
2023-08-15T10:18:14.233Z,9.60
2023-08-15T10:19:13.064Z,7.60
2023-08-15T10:20:12.989Z,13.88
2023-08-15T10:21:12.964Z,9.20
2023-08-15T10:22:13.098Z,19.00
2023-08-15T10:23:13.061Z,18.92
2023-08-15T10:24:12.940Z,13.36
2023-08-15T10:25:13.137Z,11.20
2023-08-15T10:26:13.092Z,9.72
2023-08-15T10:27:13.648Z,6.72
2023-08-15T10:28:13.763Z,9.64
2023-08-15T10:29:13.589Z,10.52
2023-08-15T10:30:14.156Z,7.52
2023-08-15T10:31:13.845Z,6.84
2023-08-15T10:32:13.912Z,14.32
2023-08-15T10:33:13.044Z,9.40
2023-08-15T10:34:13.013Z,15.08
2023-08-15T10:35:12.867Z,10.44
2023-08-15T10:36:12.868Z,9.92
2023-08-15T10:37:12.772Z,12.04
2023-08-15T10:38:13.863Z,11.56
2023-08-15T10:39:17.915Z,7.16
2023-08-15T10:40:12.968Z,11.68
2023-08-15T10:41:12.701Z,10.84
2023-08-15T10:42:13.650Z,11.12
2023-08-15T10:43:13.734Z,6.40
2023-08-15T10:44:13.642Z,9.04
2023-08-15T10:45:13.806Z,6.64
2023-08-15T10:46:13.841Z,9.96
2023-08-15T10:47:12.773Z,11.64
2023-08-15T10:48:13.896Z,6.72
2023-08-15T10:49:12.807Z,18.24
2023-08-15T10:50:19.345Z,3.72
2023-08-15T10:51:13.437Z,3.20
2023-08-15T10:52:13.380Z,6.20
2023-08-15T10:53:13.266Z,13.68
2023-08-15T10:54:13.205Z,13.60
2023-08-15T10:55:13.262Z,7.16
2023-08-15T10:56:13.210Z,5.24
2023-08-15T10:57:13.043Z,11.36
2023-08-15T10:58:12.777Z,15.16
2023-08-15T10:59:13.881Z,12.24
2023-08-15T11:00:12.838Z,7.84
2023-08-15T11:01:13.943Z,2.56
2023-08-15T11:02:12.858Z,4.64
2023-08-15T11:03:13.777Z,7.72
2023-08-15T11:04:13.703Z,7.64
2023-08-15T11:05:13.790Z,4.56
2023-08-15T11:06:13.814Z,6.89
2023-08-15T11:07:13.642Z,12.20
2023-08-15T11:08:13.686Z,6.00
2023-08-15T11:09:13.566Z,2.68
2023-08-15T11:10:13.632Z,8.09
2023-08-15T11:11:13.515Z,6.72
2023-08-15T11:12:13.448Z,8.54
2023-08-15T11:13:13.351Z,18.28
2023-08-15T11:14:13.409Z,10.16
2023-08-15T11:15:13.437Z,14.80
2023-08-15T11:16:13.474Z,8.04
2023-08-15T11:17:13.600Z,12.64
2023-08-15T11:18:13.517Z,11.84
2023-08-15T11:19:13.389Z,9.08
2023-08-15T11:20:13.149Z,9.20
2023-08-15T11:21:13.327Z,3.68
2023-08-15T11:22:13.492Z,10.60
2023-08-15T11:23:13.567Z,10.24
2023-08-15T11:24:13.327Z,13.24
2023-08-15T11:25:13.141Z,10.16
2023-08-15T11:26:13.148Z,7.24
2023-08-15T11:27:13.241Z,11.84
2023-08-15T11:28:13.102Z,6.68
2023-08-15T11:29:13.074Z,9.00
2023-08-15T11:30:13.174Z,15.88
2023-08-15T11:32:13.240Z,12.84
2023-08-15T11:33:13.282Z,7.16
2023-08-15T11:34:13.385Z,13.32
2023-08-15T11:35:13.496Z,7.36
2023-08-15T11:36:13.414Z,6.92
2023-08-15T11:37:13.286Z,4.04
2023-08-15T11:38:13.325Z,4.16
2023-08-15T11:39:13.276Z,10.36
2023-08-15T11:40:13.380Z,7.84
2023-08-15T11:41:13.321Z,11.44
2023-08-15T11:42:13.216Z,14.76
2023-08-15T11:43:13.087Z,10.28
2023-08-15T11:44:12.999Z,22.88
2023-08-15T11:45:12.971Z,14.92
2023-08-15T11:46:12.960Z,3.80
2023-08-15T11:47:12.903Z,4.08
2023-08-15T11:48:19.587Z,9.00
2023-08-15T11:49:13.552Z,11.64
2023-08-15T11:50:13.421Z,2.24
2023-08-15T11:51:13.512Z,9.00
2023-08-15T11:52:13.401Z,4.44
2023-08-15T11:53:13.313Z,14.28
2023-08-15T11:54:13.228Z,10.68
2023-08-15T11:55:13.078Z,11.64
2023-08-15T11:56:13.304Z,12.00
2023-08-15T11:57:13.233Z,15.92
2023-08-15T11:58:13.183Z,6.32
2023-08-15T11:59:12.993Z,3.48
2023-08-15T12:00:13.014Z,3.00
2023-08-15T12:01:13.072Z,2.96
2023-08-15T12:02:13.184Z,5.44
2023-08-15T12:03:13.317Z,2.60
2023-08-15T12:04:13.471Z,9.92
2023-08-15T12:05:13.440Z,18.48
2023-08-15T12:06:13.808Z,7.72
2023-08-15T12:07:13.797Z,15.76
2023-08-15T12:08:13.784Z,8.84
2023-08-15T12:09:13.691Z,11.88
2023-08-15T12:10:13.861Z,5.48
2023-08-15T12:11:12.967Z,7.24
2023-08-15T12:12:12.887Z,10.04
2023-08-15T12:13:13.719Z,10.72
2023-08-15T12:14:13.559Z,16.04
2023-08-15T12:15:13.591Z,14.84
2023-08-15T12:16:13.557Z,12.04
2023-08-15T12:17:13.639Z,13.52
2023-08-15T12:18:13.552Z,4.52
2023-08-15T12:19:13.326Z,11.76
2023-08-15T12:20:13.347Z,10.96
2023-08-15T12:21:14.328Z,5.68
2023-08-15T12:22:13.022Z,6.92
2023-08-15T12:23:22.784Z,4.56
2023-08-15T12:24:13.236Z,4.56
2023-08-15T12:25:13.212Z,12.20
2023-08-15T12:26:13.404Z,13.68
2023-08-15T12:27:13.305Z,9.60
2023-08-15T12:28:13.235Z,17.88
2023-08-15T12:29:13.011Z,7.72
2023-08-15T12:30:16.215Z,0.80
2023-08-15T12:31:13.845Z,9.16
2023-08-15T12:32:12.914Z,11.72
2023-08-15T12:33:16.072Z,4.32
2023-08-15T12:34:13.161Z,2.12
2023-08-15T12:35:13.129Z,9.00
2023-08-15T12:36:14.043Z,9.84
2023-08-15T12:37:21.689Z,5.66
2023-08-15T12:38:51.202Z,10.16
2023-08-15T12:39:21.495Z,10.16
2023-08-15T12:41:24.451Z,8.88
2023-08-15T12:43:41.034Z,0.88
2023-08-15T12:45:15.745Z,2.88
2023-08-15T12:46:13.782Z,2.76
2023-08-15T12:47:12.858Z,4.44
2023-08-15T12:48:13.840Z,11.48
2023-08-15T12:49:13.076Z,4.00
2023-08-15T12:50:13.349Z,18.68
2023-08-15T12:51:13.204Z,9.12
2023-08-15T12:52:13.109Z,5.72
2023-08-15T12:53:13.519Z,6.96
2023-08-15T12:54:13.749Z,8.16
2023-08-15T12:55:13.561Z,7.24
2023-08-15T12:56:13.533Z,9.08
2023-08-15T12:57:13.535Z,4.72
2023-08-15T12:58:13.706Z,2.20
2023-08-15T12:59:14.102Z,3.64
2023-08-15T13:00:13.145Z,6.84
2023-08-15T13:01:13.057Z,11.04
2023-08-15T13:02:12.971Z,8.96
2023-08-15T13:03:12.783Z,13.96
2023-08-15T13:04:13.807Z,14.56
2023-08-15T13:05:13.821Z,16.84
2023-08-15T13:06:28.032Z,5.04
2023-08-15T13:07:13.171Z,16.20
2023-08-15T13:08:13.157Z,17.40
2023-08-15T13:09:13.106Z,12.00
2023-08-15T13:10:13.167Z,9.76
2023-08-15T13:11:13.155Z,7.32
2023-08-15T13:12:13.424Z,6.12
2023-08-15T13:13:13.268Z,8.68